Time;durP1;ratioP1;P1;durP2;ratioP2;P2;SDS_P1;SDS_P2;PMS_P1;PMS_P2;Temp;Humidity;BMP_temperature;BMP_pressure;BME280_temperature;BME280_humidity;BME280_pressure;Samples;Min_cycle;Max_cycle;Signal;HPM_P1;HPM_P2
2022/04/25 00:00:15;;;;;;;6.27;3.53;;;10.80;99.90;;;;;;5115676;28;21078;-56
2022/04/25 00:02:42;;;;;;;7.17;2.90;;;10.80;99.90;;;;;;5113280;28;20506;-55
2022/04/25 00:05:10;;;;;;;4.63;3.03;;;10.80;99.90;;;;;;5116180;28;20527;-56
2022/04/25 00:07:38;;;;;;;4.70;3.23;;;10.90;99.90;;;;;;5111406;28;20543;-55
2022/04/25 00:10:06;;;;;;;3.20;2.30;;;10.80;99.90;;;;;;5116188;28;20483;-56
2022/04/25 00:12:35;;;;;;;4.90;3.00;;;10.80;99.90;;;;;;5126778;28;20452;-56
2022/04/25 00:15:02;;;;;;;4.70;2.50;;;10.70;99.90;;;;;;5135526;28;20570;-56
2022/04/25 00:17:29;;;;;;;5.40;2.37;;;10.60;99.90;;;;;;5133330;28;20550;-55
2022/04/25 00:19:56;;;;;;;5.50;3.20;;;10.50;99.90;;;;;;5116175;28;20436;-56
2022/04/25 00:22:24;;;;;;;5.93;4.30;;;10.50;99.90;;;;;;5113413;28;20453;-57
2022/04/25 00:24:51;;;;;;;4.73;2.80;;;10.50;99.90;;;;;;5115636;28;20899;-55
2022/04/25 00:27:18;;;;;;;6.50;4.57;;;10.50;99.90;;;;;;5112413;28;20476;-56
2022/04/25 00:29:45;;;;;;;7.03;4.70;;;10.70;99.90;;;;;;5114036;28;20836;-56
2022/04/25 00:32:12;;;;;;;4.50;3.97;;;10.80;99.90;;;;;;5114789;28;20946;-57
2022/04/25 00:34:41;;;;;;;6.30;4.20;;;10.80;99.90;;;;;;5114775;28;20576;-55
2022/04/25 00:37:08;;;;;;;7.33;4.00;;;10.90;99.90;;;;;;5113426;28;20868;-57
2022/04/25 00:39:36;;;;;;;6.40;4.90;;;10.90;99.90;;;;;;5114648;28;21173;-57
2022/04/25 00:42:03;;;;;;;5.20;3.70;;;10.80;99.90;;;;;;5114919;28;20555;-55
2022/04/25 00:44:30;;;;;;;9.40;5.67;;;10.90;99.90;;;;;;5119987;28;20479;-56
2022/04/25 00:46:59;;;;;;;7.57;4.73;;;10.90;99.90;;;;;;5118995;28;20531;-57
2022/04/25 00:49:26;;;;;;;7.00;5.83;;;10.90;99.90;;;;;;5138156;27;20777;-56
2022/04/25 00:51:53;;;;;;;5.83;4.30;;;10.80;99.90;;;;;;5121422;27;20740;-54
2022/04/25 00:54:21;;;;;;;7.77;5.20;;;10.80;99.90;;;;;;5139355;27;20877;-55
2022/04/25 00:56:50;;;;;;;6.10;4.57;;;10.80;99.90;;;;;;5136462;27;20534;-55
2022/04/25 00:59:18;;;;;;;4.50;3.97;;;10.60;99.90;;;;;;5120773;27;20487;-53
2022/04/25 01:01:51;;;;;;;7.77;5.00;;;10.60;99.90;;;;;;5116474;28;20996;-55
2022/04/25 01:04:18;;;;;;;6.33;4.60;;;10.70;99.90;;;;;;5116559;28;21014;-57
2022/04/25 01:06:46;;;;;;;7.80;5.37;;;10.70;99.90;;;;;;5118896;28;20487;-56
2022/04/25 01:09:13;;;;;;;9.80;5.67;;;10.70;99.90;;;;;;5116929;28;20546;-58
2022/04/25 01:11:42;;;;;;;8.73;5.17;;;10.70;99.90;;;;;;5118449;28;20555;-58
2022/04/25 01:14:14;;;;;;;9.87;6.87;;;10.60;99.90;;;;;;5116254;27;20476;-56
2022/04/25 01:16:41;;;;;;;8.30;6.00;;;10.50;99.90;;;;;;5118885;28;20535;-55
2022/04/25 01:19:08;;;;;;;7.70;5.47;;;10.50;99.90;;;;;;5097076;28;20493;-55
2022/04/25 01:21:50;;;;;;;11.00;7.50;;;10.50;99.90;;;;;;5111408;28;20444;-57
2022/04/25 01:27:17;;;;;;;8.50;5.13;;;10.40;99.90;;;;;;5117849;28;20420;-57
2022/04/25 01:29:45;;;;;;;10.90;5.97;;;10.40;99.90;;;;;;5115343;28;20488;-54
2022/04/25 01:32:12;;;;;;;8.90;5.90;;;10.50;99.90;;;;;;5117501;27;20563;-56
2022/04/25 01:34:42;;;;;;;8.40;6.00;;;10.50;99.90;;;;;;5116445;28;21017;-57
2022/04/25 01:37:11;;;;;;;9.23;6.97;;;10.50;99.90;;;;;;5117251;28;20449;-56
2022/04/25 01:39:41;;;;;;;11.03;6.90;;;10.40;99.90;;;;;;5115584;28;20484;-56
2022/04/25 01:42:08;;;;;;;9.17;6.13;;;10.30;99.90;;;;;;5124800;27;20551;-57
2022/04/25 01:44:36;;;;;;;8.67;5.43;;;10.20;99.90;;;;;;5115050;28;20543;-57
2022/04/25 01:47:03;;;;;;;8.77;6.37;;;10.10;99.90;;;;;;5086794;28;20544;-57
2022/04/25 01:49:33;;;;;;;9.93;7.70;;;10.10;99.90;;;;;;5117162;28;20456;-56
2022/04/25 01:52:02;;;;;;;11.47;6.63;;;10.10;99.90;;;;;;5124969;27;20540;-55
2022/04/25 01:54:29;;;;;;;11.93;7.87;;;10.10;99.90;;;;;;5100936;28;20836;-56
2022/04/25 01:57:01;;;;;;;8.40;5.90;;;10.00;99.90;;;;;;5116062;28;20892;-55
2022/04/25 01:59:29;;;;;;;14.00;9.30;;;10.00;99.90;;;;;;5117056;28;20464;-56
2022/04/25 02:01:55;;;;;;;10.87;7.50;;;10.20;99.90;;;;;;5118268;27;20453;-54
2022/04/25 02:04:23;;;;;;;14.40;7.97;;;10.20;99.90;;;;;;5117519;28;20453;-56
2022/04/25 02:06:50;;;;;;;12.50;7.47;;;10.20;99.90;;;;;;5115159;28;20487;-55
2022/04/25 02:09:17;;;;;;;12.97;8.43;;;10.30;99.90;;;;;;5113656;28;20548;-56
2022/04/25 02:11:44;;;;;;;8.57;7.00;;;10.10;99.90;;;;;;5117905;27;20460;-56
2022/04/25 02:14:12;;;;;;;10.10;7.47;;;10.00;99.90;;;;;;5117605;28;20551;-56
2022/04/25 02:16:39;;;;;;;12.23;7.83;;;9.90;99.90;;;;;;5118132;28;20954;-57
2022/04/25 02:19:06;;;;;;;10.17;7.60;;;10.00;99.90;;;;;;5114704;27;20884;-58
2022/04/25 02:21:33;;;;;;;12.47;8.37;;;9.90;99.90;;;;;;5130366;27;20538;-57
2022/04/25 02:24:00;;;;;;;12.37;8.67;;;9.90;99.90;;;;;;5132314;27;20542;-55
2022/04/25 02:26:27;;;;;;;10.93;7.23;;;9.90;99.90;;;;;;5135255;27;20895;-55
2022/04/25 02:28:54;;;;;;;10.83;7.50;;;9.90;99.90;;;;;;5130228;27;20471;-57
2022/04/25 02:31:23;;;;;;;11.10;7.27;;;10.00;99.90;;;;;;5115202;28;20444;-54
2022/04/25 02:33:51;;;;;;;10.30;7.47;;;10.00;99.90;;;;;;5115357;28;20519;-55
2022/04/25 02:36:18;;;;;;;11.17;6.70;;;10.10;99.90;;;;;;5111353;28;20771;-57
2022/04/25 02:38:45;;;;;;;10.30;7.53;;;10.20;99.90;;;;;;5113698;28;20825;-56
2022/04/25 02:41:12;;;;;;;8.63;6.63;;;10.20;99.90;;;;;;5116547;27;20452;-56
2022/04/25 02:43:41;;;;;;;11.10;6.77;;;10.10;99.90;;;;;;5116106;28;20539;-53
2022/04/25 02:46:10;;;;;;;10.43;7.23;;;10.10;99.90;;;;;;5117411;28;20445;-54
2022/04/25 02:48:40;;;;;;;10.83;8.13;;;9.90;99.90;;;;;;5116283;27;20536;-54
2022/04/25 02:51:09;;;;;;;10.73;6.90;;;9.80;99.90;;;;;;5116396;28;20525;-57
2022/04/25 02:53:36;;;;;;;14.07;7.60;;;9.80;99.90;;;;;;4884671;28;20926;-59
2022/04/25 02:56:05;;;;;;;10.10;7.90;;;9.80;99.90;;;;;;5115606;28;20641;-58
2022/04/25 02:58:34;;;;;;;11.43;7.37;;;9.90;99.90;;;;;;5116703;27;20505;-59
2022/04/25 03:01:01;;;;;;;10.10;7.60;;;9.80;99.90;;;;;;5114127;28;20605;-59
2022/04/25 03:03:30;;;;;;;8.90;6.80;;;9.80;99.90;;;;;;5115707;28;20735;-58
2022/04/25 03:05:58;;;;;;;11.40;6.63;;;9.80;99.90;;;;;;5116840;28;20444;-58
2022/04/25 03:08:25;;;;;;;11.10;7.93;;;10.00;99.90;;;;;;5133487;27;20542;-58
2022/04/25 03:10:54;;;;;;;9.87;6.10;;;10.00;99.90;;;;;;5135774;27;20447;-58
2022/04/25 03:13:24;;;;;;;10.77;6.40;;;10.10;99.90;;;;;;5137638;27;20501;-59
2022/04/25 03:15:51;;;;;;;14.13;8.17;;;10.00;99.90;;;;;;5113447;27;20475;-58
2022/04/25 03:18:21;;;;;;;10.77;7.37;;;9.90;99.90;;;;;;5116777;28;20935;-58
2022/04/25 03:20:49;;;;;;;10.50;7.17;;;9.80;99.90;;;;;;5116865;28;20895;-58
2022/04/25 03:23:19;;;;;;;12.20;7.47;;;9.70;99.90;;;;;;5114357;28;20499;-58
2022/04/25 03:26:17;;;;;;;10.50;7.47;;;9.60;99.90;;;;;;5083934;27;20936;-57
2022/04/25 03:28:44;;;;;;;11.20;7.30;;;9.40;99.90;;;;;;5113703;28;20514;-58
2022/04/25 03:31:11;;;;;;;10.20;6.37;;;9.30;99.90;;;;;;5073660;28;20980;-55
2022/04/25 03:33:38;;;;;;;12.10;7.07;;;9.30;99.90;;;;;;5115590;28;20456;-54
2022/04/25 03:36:06;;;;;;;11.53;6.87;;;9.30;99.90;;;;;;5115409;28;20488;-58
2022/04/25 03:42:16;;;;;;;10.00;6.77;;;9.40;99.90;;;;;;5071182;28;20542;-54
2022/04/25 03:44:44;;;;;;;13.53;6.87;;;9.40;99.90;;;;;;5071566;28;20984;-53
2022/04/25 03:47:10;;;;;;;9.90;6.27;;;9.50;99.90;;;;;;5063116;28;20455;-54
2022/04/25 03:49:37;;;;;;;12.97;8.43;;;9.60;99.90;;;;;;5036605;28;20566;-52
2022/04/25 03:52:05;;;;;;;10.00;5.97;;;9.70;99.90;;;;;;5055210;28;21184;-53
2022/04/25 03:57:18;;;;;;;11.53;7.70;;;9.50;99.90;;;;;;5051287;28;20470;-52
2022/04/25 03:59:44;;;;;;;9.50;6.20;;;9.40;99.90;;;;;;5053856;28;20546;-57
2022/04/25 04:02:11;;;;;;;10.57;5.50;;;9.40;99.90;;;;;;5051256;28;20490;-53
2022/04/25 04:05:02;;;;;;;10.00;7.47;;;9.40;99.90;;;;;;5052963;28;20530;-56
2022/04/25 04:07:29;;;;;;;9.00;6.33;;;9.50;99.90;;;;;;5051024;28;20517;-53
2022/04/25 04:09:56;;;;;;;11.00;7.03;;;9.60;99.90;;;;;;5053937;28;20514;-52
2022/04/25 04:12:34;;;;;;;10.90;6.90;;;9.60;99.90;;;;;;5054336;28;20466;-49
2022/04/25 04:15:02;;;;;;;13.50;7.73;;;9.80;99.90;;;;;;5052978;28;20716;-48
2022/04/25 04:17:29;;;;;;;14.70;7.67;;;9.80;99.90;;;;;;5058747;28;20506;-54
2022/04/25 04:19:57;;;;;;;10.77;7.57;;;9.80;99.90;;;;;;4870419;28;20893;-56
2022/04/25 04:22:25;;;;;;;14.13;8.80;;;9.80;99.90;;;;;;5030393;28;20458;-53
2022/04/25 04:24:53;;;;;;;8.13;6.53;;;9.70;99.90;;;;;;5047269;28;20454;-55
2022/04/25 04:27:19;;;;;;;13.40;9.10;;;9.80;99.90;;;;;;5054109;28;20562;-59
2022/04/25 04:29:48;;;;;;;12.57;9.40;;;9.80;99.90;;;;;;5057052;28;20458;-58
2022/04/25 04:32:15;;;;;;;11.10;7.90;;;9.90;99.90;;;;;;5058498;28;20475;-58
2022/04/25 04:34:42;;;;;;;12.70;7.90;;;9.90;99.90;;;;;;5068421;28;20486;-58
2022/04/25 04:37:09;;;;;;;9.80;6.57;;;9.90;99.90;;;;;;5074701;28;20842;-58
2022/04/25 04:39:36;;;;;;;7.63;6.07;;;9.90;99.90;;;;;;5116179;28;20543;-58
2022/04/25 04:42:03;;;;;;;11.23;5.80;;;10.00;99.90;;;;;;5117513;28;20516;-58
2022/04/25 04:44:31;;;;;;;12.43;7.03;;;10.00;99.90;;;;;;5119519;28;20531;-58
2022/04/25 04:46:59;;;;;;;11.77;7.00;;;10.10;99.90;;;;;;5110569;28;20943;-58
2022/04/25 04:49:26;;;;;;;7.87;6.63;;;10.00;99.90;;;;;;5080143;28;20523;-57
2022/04/25 04:51:53;;;;;;;8.33;5.70;;;10.00;99.90;;;;;;5117569;28;20951;-58
2022/04/25 04:54:20;;;;;;;12.00;7.60;;;10.10;99.90;;;;;;5118426;28;20544;-58
2022/04/25 04:56:47;;;;;;;10.80;7.77;;;10.20;99.90;;;;;;5098165;28;20542;-58
2022/04/25 04:59:14;;;;;;;10.33;7.37;;;10.10;99.90;;;;;;5114079;28;20444;-58
2022/04/25 05:01:42;;;;;;;8.67;6.10;;;10.10;99.90;;;;;;5116307;28;20823;-58
2022/04/25 05:04:12;;;;;;;10.97;8.13;;;10.10;99.90;;;;;;5117379;28;20448;-57
2022/04/25 05:06:39;;;;;;;12.40;7.50;;;9.90;99.90;;;;;;5111450;28;20469;-56
2022/04/25 05:09:06;;;;;;;11.73;7.80;;;9.90;99.90;;;;;;5097894;28;20445;-57
2022/04/25 05:11:35;;;;;;;13.37;8.40;;;9.90;99.90;;;;;;5096542;28;20864;-57
2022/04/25 05:14:07;;;;;;;11.07;7.17;;;10.00;99.90;;;;;;5095572;28;20441;-58
2022/04/25 05:16:36;;;;;;;12.17;7.03;;;10.00;99.90;;;;;;5095586;28;20924;-57
2022/04/25 05:19:03;;;;;;;14.20;8.83;;;10.00;99.90;;;;;;5095950;28;20562;-56
2022/04/25 05:21:31;;;;;;;11.37;7.10;;;10.00;99.90;;;;;;5096748;28;20449;-57
2022/04/25 05:24:02;;;;;;;14.50;7.97;;;10.00;99.90;;;;;;5094813;28;20587;-56
2022/04/25 05:26:29;;;;;;;11.37;7.90;;;9.80;99.90;;;;;;5096355;28;20770;-57
2022/04/25 05:28:57;;;;;;;12.20;7.57;;;9.70;99.90;;;;;;5097216;28;20955;-59
2022/04/25 05:31:25;;;;;;;14.80;9.90;;;9.60;99.90;;;;;;5097270;28;20908;-59
2022/04/25 05:33:54;;;;;;;14.17;7.93;;;9.50;99.90;;;;;;5095241;28;20504;-58
2022/04/25 05:36:24;;;;;;;13.13;8.67;;;9.40;99.90;;;;;;5096285;28;20564;-59
2022/04/25 05:38:55;;;;;;;14.43;8.77;;;9.40;99.90;;;;;;5095622;28;20875;-58
2022/04/25 05:41:25;;;;;;;15.10;9.23;;;9.50;99.90;;;;;;5095799;28;21058;-60
2022/04/25 05:43:52;;;;;;;11.80;6.63;;;9.50;99.90;;;;;;5094829;28;20830;-58
2022/04/25 05:46:21;;;;;;;12.73;8.43;;;9.60;99.90;;;;;;5095243;28;21120;-60
2022/04/25 05:54:22;;;;;;;10.17;6.90;;;9.90;99.90;;;;;;5100108;28;20436;-57
2022/04/25 05:56:53;;;;;;;10.27;6.93;;;9.90;99.90;;;;;;5094929;28;20489;-59
2022/04/25 05:59:20;;;;;;;11.53;7.13;;;10.10;99.90;;;;;;5058973;28;20445;-59
2022/04/25 06:01:49;;;;;;;13.63;8.30;;;10.20;99.90;;;;;;5105471;28;20483;-58
2022/04/25 06:04:15;;;;;;;8.30;6.20;;;10.40;99.90;;;;;;5115662;28;20502;-58
2022/04/25 06:06:42;;;;;;;12.10;8.37;;;10.60;99.90;;;;;;5050528;28;20528;-59
2022/04/25 06:09:11;;;;;;;9.57;6.47;;;10.70;99.90;;;;;;5099029;28;20519;-59
2022/04/25 06:11:40;;;;;;;13.57;7.90;;;10.80;99.90;;;;;;5091897;28;20556;-60
2022/04/25 06:14:08;;;;;;;10.10;7.70;;;10.70;99.90;;;;;;5096383;28;20545;-60
2022/04/25 06:16:36;;;;;;;10.93;7.00;;;10.60;99.90;;;;;;5094020;28;20482;-60
2022/04/25 06:19:02;;;;;;;10.83;7.33;;;10.50;99.90;;;;;;5097283;28;20948;-59
2022/04/25 06:21:29;;;;;;;11.40;6.63;;;10.50;99.90;;;;;;5111091;28;20971;-60
2022/04/25 06:24:00;;;;;;;11.13;5.97;;;10.50;99.90;;;;;;5102333;28;20449;-59
2022/04/25 06:26:28;;;;;;;12.60;8.07;;;10.60;99.90;;;;;;5088034;28;20464;-59
2022/04/25 06:29:02;;;;;;;9.80;6.47;;;10.70;99.90;;;;;;5100932;28;20453;-59
2022/04/25 06:31:29;;;;;;;10.70;7.40;;;10.80;99.90;;;;;;5103621;28;20510;-60
2022/04/25 06:33:58;;;;;;;7.90;5.93;;;11.00;99.90;;;;;;5111828;28;20469;-60
2022/04/25 06:36:26;;;;;;;12.93;7.67;;;11.10;99.90;;;;;;5114122;28;20771;-60
2022/04/25 06:39:02;;;;;;;9.33;6.03;;;11.10;99.90;;;;;;5109113;27;20587;-59
2022/04/25 06:41:33;;;;;;;10.40;6.70;;;11.20;99.90;;;;;;5111576;28;20449;-60
2022/04/25 06:44:01;;;;;;;7.30;5.67;;;11.20;99.90;;;;;;5071983;28;20453;-60
2022/04/25 06:46:37;;;;;;;11.37;5.77;;;11.30;99.90;;;;;;5076600;28;20885;-60
2022/04/25 06:49:58;;;;;;;7.27;4.97;;;11.30;99.90;;;;;;5089678;28;20513;-60
2022/04/25 06:52:25;;;;;;;5.50;3.50;;;11.50;99.90;;;;;;5091377;28;20445;-59
2022/04/25 06:55:04;;;;;;;13.80;6.80;;;11.90;99.90;;;;;;5096727;28;20559;-59
2022/04/25 06:57:33;;;;;;;7.50;4.90;;;12.20;65.60;;;;;;5089918;28;20476;-59
2022/04/25 07:00:01;;;;;;;8.57;5.30;;;12.30;77.30;;;;;;5043113;28;20440;-59
2022/04/25 07:02:32;;;;;;;8.00;5.40;;;12.50;49.50;;;;;;5109050;28;20543;-60
2022/04/25 07:04:59;;;;;;;7.47;6.13;;;12.60;35.30;;;;;;5093995;28;20483;-59
2022/04/25 07:07:26;;;;;;;6.03;3.50;;;12.60;14.60;;;;;;5094524;28;20445;-59
2022/04/25 07:09:54;;;;;;;6.67;4.77;;;12.50;41.50;;;;;;5093334;28;20542;-59
2022/04/25 07:12:21;;;;;;;7.37;4.83;;;12.50;40.00;;;;;;5104698;28;20895;-60
2022/04/25 07:14:50;;;;;;;6.33;4.50;;;12.40;34.80;;;;;;5103290;28;20812;-59
2022/04/25 07:17:18;;;;;;;6.47;4.73;;;12.40;13.90;;;;;;5097437;28;20579;-59
2022/04/25 07:19:46;;;;;;;7.70;5.70;;;12.20;23.50;;;;;;4978853;28;20550;-62
2022/04/25 07:30:36;;;;;;;8.17;4.67;;;12.70;12.50;;;;;;5029483;28;20436;-59
2022/04/25 07:33:04;;;;;;;4.40;3.97;;;13.00;9.10;;;;;;5028862;28;20492;-58
2022/04/25 07:35:31;;;;;;;6.60;4.70;;;13.20;1.00;;;;;;5073412;28;20843;-58
2022/04/25 07:38:00;;;;;;;5.60;4.20;;;13.20;1.00;;;;;;5114514;28;20492;-58
2022/04/25 07:40:30;;;;;;;6.63;4.27;;;13.00;1.00;;;;;;5111111;28;20953;-58
2022/04/25 07:42:58;;;;;;;6.37;5.53;;;13.00;1.00;;;;;;5105693;28;20481;-58
2022/04/25 07:45:30;;;;;;;3.97;3.57;;;12.90;1.00;;;;;;5097854;28;20461;-58
2022/04/25 07:48:07;;;;;;;4.57;3.27;;;12.70;1.10;;;;;;5097129;28;20445;-58
2022/04/25 07:50:36;;;;;;;5.00;4.47;;;13.00;3.40;;;;;;4786057;28;20540;-57
2022/04/25 07:53:07;;;;;;;6.93;5.10;;;13.30;1.00;;;;;;5073138;28;20480;-58
2022/04/25 07:55:34;;;;;;;7.90;6.60;;;13.40;1.00;;;;;;5096804;28;20442;-55
2022/04/25 08:01:23;;;;;;;4.87;4.13;;;13.40;1.00;;;;;;5104366;28;20944;-57
2022/04/25 08:03:52;;;;;;;5.30;4.40;;;13.40;1.00;;;;;;5093909;28;20533;-57
2022/04/25 08:06:21;;;;;;;8.77;5.40;;;13.00;1.00;;;;;;5093382;28;20480;-58
2022/04/25 08:08:53;;;;;;;6.10;3.67;;;13.00;1.00;;;;;;5094061;28;20442;-58
2022/04/25 08:11:26;;;;;;;7.10;5.50;;;12.90;1.00;;;;;;5094663;28;20461;-59
2022/04/25 08:19:22;;;;;;;6.30;4.70;;;13.00;1.00;;;;;;5092182;28;20440;-59
2022/04/25 08:21:52;;;;;;;5.90;4.00;;;13.00;1.00;;;;;;5093640;28;20499;-58
2022/04/25 08:24:24;;;;;;;8.63;6.20;;;13.10;1.00;;;;;;5094119;28;20534;-59
2022/04/25 08:27:11;;;;;;;5.70;4.50;;;13.00;1.00;;;;;;5092360;28;20442;-59
2022/04/25 08:29:38;;;;;;;5.60;3.73;;;13.00;1.00;;;;;;5091227;28;20495;-57
2022/04/25 08:32:08;;;;;;;8.70;5.00;;;13.00;1.00;;;;;;5093294;28;20576;-58
2022/04/25 08:34:38;;;;;;;6.53;4.63;;;13.00;1.00;;;;;;5086656;28;20460;-59
2022/04/25 08:37:10;;;;;;;4.47;3.53;;;12.90;1.00;;;;;;5092484;28;20481;-59
2022/04/25 08:39:39;;;;;;;4.00;2.77;;;13.00;1.00;;;;;;5085720;28;20450;-59
2022/04/25 08:42:09;;;;;;;4.83;4.23;;;13.10;1.00;;;;;;5092571;28;20503;-59
2022/04/25 08:44:39;;;;;;;4.90;3.57;;;13.20;1.00;;;;;;5082114;28;20511;-57
2022/04/25 08:47:09;;;;;;;4.60;2.83;;;13.30;1.00;;;;;;5093179;28;20473;-57
2022/04/25 08:49:38;;;;;;;6.40;3.93;;;13.50;1.00;;;;;;5028297;28;20433;-58
2022/04/25 08:52:23;;;;;;;3.57;2.80;;;13.50;1.00;;;;;;5017111;28;20455;-57
2022/04/25 08:54:55;;;;;;;6.97;6.20;;;13.60;1.00;;;;;;5073512;28;20465;-56
2022/04/25 08:57:22;;;;;;;6.20;3.50;;;13.50;1.00;;;;;;5073318;28;20478;-57
2022/04/25 08:59:49;;;;;;;8.23;4.20;;;13.50;1.00;;;;;;5071710;28;21040;-56
2022/04/25 09:02:22;;;;;;;12.57;7.70;;;13.50;1.00;;;;;;5073081;28;20553;-54
2022/04/25 09:04:57;;;;;;;7.20;5.27;;;13.60;1.00;;;;;;5076378;28;20458;-56
2022/04/25 09:07:26;;;;;;;8.60;5.60;;;13.70;1.00;;;;;;5077560;28;20442;-56
2022/04/25 09:09:56;;;;;;;6.70;4.90;;;13.80;1.00;;;;;;5075487;28;20465;-57
2022/04/25 09:12:26;;;;;;;7.10;3.80;;;13.90;1.00;;;;;;5088912;28;20452;-57
2022/04/25 09:15:05;;;;;;;4.93;4.40;;;13.80;1.00;;;;;;5096973;28;20761;-56
2022/04/25 09:17:38;;;;;;;5.40;4.87;;;13.90;1.00;;;;;;5073895;28;20537;-56
2022/04/25 09:20:16;;;;;;;7.87;5.40;;;14.00;1.00;;;;;;5085684;28;21177;-56
2022/04/25 09:22:46;;;;;;;7.73;4.97;;;13.90;1.00;;;;;;5076397;28;20569;-57
2022/04/25 09:25:19;;;;;;;6.20;3.73;;;14.00;1.00;;;;;;5075575;28;20519;-57
2022/04/25 09:28:06;;;;;;;7.47;4.70;;;14.00;1.00;;;;;;5076542;28;20447;-58
2022/04/25 09:30:36;;;;;;;6.60;4.17;;;14.00;1.00;;;;;;5076179;28;20478;-56
2022/04/25 09:33:21;;;;;;;6.53;5.70;;;13.60;1.00;;;;;;5077953;28;20810;-55
2022/04/25 09:36:06;;;;;;;13.20;9.90;;;13.70;1.00;;;;;;5090391;28;20457;-58
2022/04/25 09:38:36;;;;;;;12.17;6.27;;;13.70;1.00;;;;;;5084834;28;20477;-58
2022/04/25 09:41:08;;;;;;;3.83;3.43;;;13.90;1.00;;;;;;5096504;28;20470;-55
2022/04/25 09:43:40;;;;;;;6.73;4.33;;;14.10;1.00;;;;;;5065156;28;21209;-57
2022/04/25 09:46:09;;;;;;;6.20;4.20;;;14.40;1.00;;;;;;5090743;28;20526;-57
2022/04/25 09:49:02;;;;;;;7.43;4.80;;;14.50;1.00;;;;;;5083642;28;20484;-56
2022/04/25 09:51:59;;;;;;;6.63;4.03;;;14.40;1.00;;;;;;5082264;28;20442;-57
2022/04/25 09:54:31;;;;;;;5.73;4.50;;;14.50;1.00;;;;;;5094728;28;20512;-57
2022/04/25 09:57:16;;;;;;;6.10;4.67;;;14.60;99.90;;;;;;5088580;28;20457;-57
2022/04/25 09:59:46;;;;;;;4.83;4.33;;;14.70;1.00;;;;;;5093047;28;20448;-56
2022/04/25 10:02:23;;;;;;;5.97;3.87;;;14.70;1.00;;;;;;5092762;28;20477;-56
2022/04/25 10:05:02;;;;;;;6.63;5.10;;;14.70;1.00;;;;;;5095635;28;20445;-57
2022/04/25 10:07:34;;;;;;;5.87;5.27;;;14.60;1.00;;;;;;5086231;28;20190;-57
2022/04/25 10:10:17;;;;;;;8.40;7.33;;;14.50;1.00;;;;;;5075332;28;20528;-56
2022/04/25 10:12:51;;;;;;;7.87;4.43;;;14.50;1.00;;;;;;5073943;28;20439;-54
2022/04/25 10:15:21;;;;;;;6.97;5.10;;;14.50;1.00;;;;;;5082914;28;20545;-52
2022/04/25 10:17:58;;;;;;;5.67;4.13;;;14.40;1.00;;;;;;5022798;28;21203;-55
2022/04/25 10:20:31;;;;;;;7.70;4.63;;;14.30;1.00;;;;;;5086141;28;20491;-56
2022/04/25 10:23:00;;;;;;;5.43;3.70;;;14.40;1.00;;;;;;5082234;28;20919;-55
2022/04/25 10:25:30;;;;;;;4.43;3.53;;;14.20;1.00;;;;;;5093231;28;20481;-55
2022/04/25 10:28:05;;;;;;;5.90;2.90;;;14.30;1.00;;;;;;5092853;28;20448;-57
2022/04/25 10:30:34;;;;;;;5.13;3.90;;;14.40;1.00;;;;;;5093151;28;20860;-55
2022/04/25 10:33:22;;;;;;;5.00;4.50;;;14.70;1.00;;;;;;5093412;28;20735;-56
2022/04/25 10:35:56;;;;;;;5.50;4.80;;;15.00;1.00;;;;;;5094166;28;20747;-57
2022/04/25 10:38:48;;;;;;;4.13;3.70;;;15.10;32.90;;;;;;5075961;28;20474;-57
2022/04/25 10:44:57;;;;;;;4.87;4.00;;;15.20;99.90;;;;;;5073465;28;20432;-56
2022/04/25 10:47:39;;;;;;;6.53;4.10;;;15.40;99.90;;;;;;5090715;28;20449;-57
2022/04/25 10:50:23;;;;;;;4.90;3.30;;;15.80;1.00;;;;;;5092999;28;20877;-57
2022/04/25 10:53:05;;;;;;;5.80;3.90;;;16.20;1.00;;;;;;5082241;28;20454;-57
2022/04/25 10:55:45;;;;;;;4.60;3.50;;;16.40;99.90;;;;;;5093344;28;20464;-57
2022/04/25 10:58:42;;;;;;;8.17;6.40;;;16.20;99.90;;;;;;5092907;28;20477;-56
2022/04/25 11:01:41;;;;;;;6.10;5.20;;;15.90;99.90;;;;;;5091177;28;20453;-53
2022/04/25 11:04:17;;;;;;;6.27;4.70;;;16.10;99.90;;;;;;5083650;28;20465;-55
2022/04/25 11:06:46;;;;;;;6.13;5.00;;;16.20;99.90;;;;;;5086142;28;20464;-57
2022/04/25 11:09:37;;;;;;;5.17;3.23;;;16.00;23.40;;;;;;5083657;28;20551;-57
2022/04/25 11:12:12;;;;;;;4.63;3.07;;;16.20;95.40;;;;;;5084844;28;20437;-53
2022/04/25 11:14:58;;;;;;;5.43;4.33;;;16.50;57.60;;;;;;5074545;28;20506;-56
2022/04/25 11:17:34;;;;;;;5.53;3.23;;;16.70;24.10;;;;;;5081002;28;20545;-55
2022/04/25 11:20:08;;;;;;;4.20;3.47;;;16.90;1.00;;;;;;5079979;28;20746;-54
2022/04/25 11:22:54;;;;;;;7.20;3.13;;;17.20;1.00;;;;;;5088824;28;20501;-54
2022/04/25 11:25:48;;;;;;;4.20;3.47;;;16.90;1.00;;;;;;5092179;28;21122;-55
2022/04/25 11:28:22;;;;;;;4.53;2.97;;;16.40;1.00;;;;;;5085128;28;20453;-56
2022/04/25 11:31:24;;;;;;;5.23;3.60;;;15.80;1.00;;;;;;5071353;28;20454;-55
2022/04/25 11:34:13;;;;;;;5.27;3.27;;;15.80;53.30;;;;;;5083829;28;20745;-54
2022/04/25 11:37:03;;;;;;;6.80;4.27;;;15.90;37.20;;;;;;5069700;28;20449;-55
2022/04/25 11:42:29;;;;;;;5.30;3.20;;;16.20;1.00;;;;;;5083996;28;20425;-54
2022/04/25 11:45:06;;;;;;;4.20;3.80;;;16.30;1.00;;;;;;5084420;28;20454;-55
2022/04/25 11:47:42;;;;;;;3.63;3.23;;;15.80;1.00;;;;;;5069523;28;20653;-55
2022/04/25 11:50:31;;;;;;;3.63;2.63;;;15.40;99.90;;;;;;5076021;28;20473;-54
2022/04/25 11:53:03;;;;;;;4.80;2.97;;;15.20;99.90;;;;;;5087245;28;20483;-55
2022/04/25 11:55:53;;;;;;;3.80;3.30;;;15.00;99.90;;;;;;5086147;28;21255;-52
2022/04/25 11:58:35;;;;;;;4.47;3.20;;;14.90;31.00;;;;;;5072790;28;20490;-54
2022/04/25 12:01:10;;;;;;;2.83;1.90;;;14.70;1.00;;;;;;5089512;28;20534;-54
2022/04/25 12:03:52;;;;;;;6.73;4.03;;;14.50;99.90;;;;;;5093469;28;20437;-59
2022/04/25 12:06:39;;;;;;;7.47;5.17;;;14.20;99.90;;;;;;5085148;28;20453;-60
2022/04/25 12:18:15;;;;;;;6.67;3.67;;;13.90;1.00;;;;;;5080017;28;20482;-58
2022/04/25 12:20:45;;;;;;;7.40;4.27;;;14.20;1.00;;;;;;5067338;28;20444;-58
2022/04/25 12:23:32;;;;;;;6.60;4.30;;;14.30;1.00;;;;;;5092688;28;20468;-58
2022/04/25 12:26:08;;;;;;;9.17;5.30;;;14.60;1.00;;;;;;5059351;28;20523;-54
2022/04/25 12:28:37;;;;;;;5.93;3.70;;;14.70;1.00;;;;;;5071570;28;20468;-57
2022/04/25 12:31:07;;;;;;;7.27;6.23;;;14.90;1.00;;;;;;5072191;28;20529;-59
2022/04/25 12:33:36;;;;;;;7.00;6.23;;;14.80;1.00;;;;;;5070056;28;20478;-58
2022/04/25 12:36:14;;;;;;;5.43;3.87;;;14.80;1.00;;;;;;5076916;28;20515;-58
2022/04/25 12:38:47;;;;;;;3.73;3.30;;;14.80;1.00;;;;;;5097552;28;20599;-58
2022/04/25 12:41:31;;;;;;;4.67;3.70;;;15.00;1.00;;;;;;5091381;28;20461;-58
2022/04/25 12:43:59;;;;;;;5.77;4.73;;;15.30;1.00;;;;;;5083849;28;20461;-59
2022/04/25 12:47:06;;;;;;;5.30;4.77;;;15.10;1.00;;;;;;5073440;28;20555;-57
2022/04/25 12:49:38;;;;;;;10.17;4.63;;;14.70;1.00;;;;;;5076913;28;21064;-58
2022/04/25 12:52:28;;;;;;;13.40;9.90;;;14.60;1.00;;;;;;5077069;28;20454;-56
2022/04/25 12:55:07;;;;;;;4.80;3.60;;;14.60;1.00;;;;;;5080932;28;20457;-57
2022/04/25 12:57:46;;;;;;;5.90;3.30;;;14.40;1.00;;;;;;5082908;28;20540;-57
2022/04/25 13:00:17;;;;;;;4.43;4.13;;;14.40;1.00;;;;;;5085891;28;20479;-57
2022/04/25 13:02:49;;;;;;;5.93;3.60;;;14.60;1.00;;;;;;5076571;28;21205;-57
2022/04/25 13:08:35;;;;;;;6.00;4.73;;;15.30;1.00;;;;;;5075848;28;20442;-57
2022/04/25 13:11:12;;;;;;;5.63;3.70;;;15.40;1.00;;;;;;5040734;28;20490;-58
2022/04/25 13:13:40;;;;;;;7.30;4.37;;;15.50;1.00;;;;;;5089552;28;20523;-57
2022/04/25 13:19:45;;;;;;;5.07;4.60;;;15.00;1.00;;;;;;5114175;28;20467;-57
2022/04/25 13:22:12;;;;;;;2.87;2.03;;;14.70;99.90;;;;;;5086763;28;20495;-56
2022/04/25 13:24:48;;;;;;;3.93;2.33;;;15.10;1.00;;;;;;5107814;28;20456;-58
2022/04/25 13:27:19;;;;;;;3.30;2.20;;;15.80;1.00;;;;;;5101329;28;20472;-57
2022/04/25 13:29:56;;;;;;;3.53;2.40;;;16.10;1.00;;;;;;5107481;28;20870;-58
2022/04/25 13:32:31;;;;;;;2.90;2.27;;;16.40;99.90;;;;;;5091130;28;20483;-60
2022/04/25 13:34:58;;;;;;;3.37;1.93;;;16.50;1.00;;;;;;5105869;28;20453;-58
2022/04/25 13:37:29;;;;;;;4.60;2.60;;;16.30;99.90;;;;;;5083057;28;20658;-58
2022/04/25 13:40:00;;;;;;;1.93;1.53;;;16.70;99.90;;;;;;5102735;28;20480;-58
2022/04/25 13:42:30;;;;;;;2.37;1.47;;;17.00;1.00;;;;;;5115696;28;20477;-58
2022/04/25 13:44:58;;;;;;;3.10;1.97;;;16.80;99.90;;;;;;5115288;28;20547;-58
2022/04/25 13:47:28;;;;;;;3.03;1.80;;;17.00;1.00;;;;;;5098862;28;20485;-57
2022/04/25 13:49:55;;;;;;;2.43;1.40;;;16.80;99.90;;;;;;5095038;28;20453;-58
2022/04/25 13:52:31;;;;;;;1.43;1.27;;;16.00;99.90;;;;;;5102800;28;20928;-59
2022/04/25 13:54:57;;;;;;;3.73;1.50;;;15.80;99.90;;;;;;5093799;28;20923;-58
2022/04/25 13:57:24;;;;;;;2.20;1.77;;;16.00;1.00;;;;;;5098598;28;20510;-58
2022/04/25 13:59:55;;;;;;;2.17;1.40;;;15.80;1.00;;;;;;5095926;28;20520;-58
2022/04/25 14:05:13;;;;;;;2.73;1.10;;;15.90;1.00;;;;;;5115132;28;20428;-57
2022/04/25 14:07:59;;;;;;;1.40;0.80;;;16.30;99.90;;;;;;5115009;28;20444;-57